Portada
METAR-TAF:

METAR-TAF

Aeroports :

Indianàpolis, Indiana, Estats Units d'Amèrica

latitud: 39-43-30N, longitud: 086-16-55W, altitud: 243 m

Observació

L'informe es va fer fa 29 minuts, a les 22:54 UTC
Vent 4 kt del Sud-Oest
Temperatura 5°C
Humitat 52%
Pressió 1021 hPa
Visibilitat: 16.1 km
Cel clar

METAR: KIND 282254Z 22004KT 10SM CLR 05/M04 A3016 RMK AO2 SLP220 T00501044

Hora: 18:23 (23:23 UTC)

Pronòstic

L'informe es va fer fa 3 hores i 20 minuts, a les 20:03 UTC
Pronòstic vàlid del 28 a les 20 UTC al 29 a les 24 UTC
Vent 3 kt del Oest/Sud-Oest
Visibilitat: 10 km
Cel clar
A partir de les 28 a les 2200 UTC
Vent 3 kt del Sud-Oest
Visibilitat: 10 km
Cel clar
A partir de les 29 a les 2000 UTC
Vent 6 kt del Sud/Sud-Oest
Visibilitat: 10 km
Cel ennuvolat a una alçada de 22000 ft

TAF: KIND 282003Z 2820/2924 25003KT P6SM SKC FM282200 22003KT P6SM SKC FM292000 20006KT P6SM BKN220

Observacions i pronòstics meteorològics de més de 4000 aeroports (METAR i TAF).

Les estacions disponibles són els punts grocs i vermells al mapa.

Posi el ratolí al punt desitjat per veure el nom de l'estació.

Feu clic per veure les observacions i els pronòstics meteorològics.

Per canviar el mapa: feu clic els botons verds amb una creu de color negre per apropar; al botó verd amb un guió per allunyar la imatge; o en les fletxes verdes per a mapes adjacents.


METAR-TAF: